Aviation Digital Data Service (ADDS)

Output produced by METARs form (1135 UTC 19 June 2019)
found at http://www.aviationweather.gov/metar/data/
 
EEEI 191050Z 23011KT CAVOK 24/10 Q1015 NOSIG
TAF EEEI 191130Z 1912/2012 22008KT 9999 FEW040 
     BECMG 2001/2003 16008KT
       
EEKA 191050Z 22008KT 170V270 CAVOK 24/09 Q1015
TAF EEKA 190300Z 1904/1910 19010KT CAVOK 
     BECMG 1907/1909 25010KT
       
EEKE 191050Z 23007KT 190V280 CAVOK 22/12 Q1016
TAF EEKE 190500Z 1906/1912 23008KT CAVOK
       
EEPU 190950Z 20007KT 150V250 CAVOK 22/15 Q1016
EETN 191120Z 28007KT 230V330 CAVOK 25/11 Q1015 NOSIG
TAF EETN 191106Z 1912/2012 24012KT CAVOK 
     TEMPO 1912/1916 30012KT 
     BECMG 1916/1918 VRB02KT 
     BECMG 2006/2008 13010KT 
     TEMPO 2009/2012 02010KT
       
EETU 191050Z AUTO 26008KT 9999 SCT051/// 24/14 Q1017